sensor_id;sensor_type;location;lat;lon;timestamp;P1;durP1;ratioP1;P2;durP2;ratioP2
41875;SDS011;27555;50.808;4.402;2023-02-23T00:01:16;53.50;;;27.73;;
41875;SDS011;27555;50.808;4.402;2023-02-23T00:03:44;53.78;;;30.20;;
41875;SDS011;27555;50.808;4.402;2023-02-23T00:06:11;53.47;;;28.27;;
41875;SDS011;27555;50.808;4.402;2023-02-23T00:08:37;55.53;;;29.70;;
41875;SDS011;27555;50.808;4.402;2023-02-23T00:11:04;59.92;;;29.30;;
41875;SDS011;27555;50.808;4.402;2023-02-23T00:13:31;53.03;;;28.83;;
41875;SDS011;27555;50.808;4.402;2023-02-23T00:16:08;54.60;;;28.27;;
41875;SDS011;27555;50.808;4.402;2023-02-23T00:18:37;55.10;;;28.90;;
41875;SDS011;27555;50.808;4.402;2023-02-23T00:21:10;56.35;;;27.98;;
41875;SDS011;27555;50.808;4.402;2023-02-23T00:23:39;55.45;;;28.20;;
41875;SDS011;27555;50.808;4.402;2023-02-23T00:26:13;53.95;;;29.33;;
41875;SDS011;27555;50.808;4.402;2023-02-23T00:28:39;53.38;;;27.23;;
41875;SDS011;27555;50.808;4.402;2023-02-23T00:31:08;47.13;;;25.65;;
41875;SDS011;27555;50.808;4.402;2023-02-23T00:33:35;50.83;;;27.85;;
41875;SDS011;27555;50.808;4.402;2023-02-23T00:36:04;49.90;;;26.73;;
41875;SDS011;27555;50.808;4.402;2023-02-23T00:38:35;47.75;;;26.98;;
41875;SDS011;27555;50.808;4.402;2023-02-23T00:41:08;46.85;;;26.38;;
41875;SDS011;27555;50.808;4.402;2023-02-23T00:43:35;45.15;;;24.92;;
41875;SDS011;27555;50.808;4.402;2023-02-23T00:46:02;45.80;;;25.38;;
41875;SDS011;27555;50.808;4.402;2023-02-23T00:48:32;48.60;;;25.70;;
41875;SDS011;27555;50.808;4.402;2023-02-23T00:51:03;47.58;;;25.05;;
41875;SDS011;27555;50.808;4.402;2023-02-23T00:53:30;42.33;;;23.83;;
41875;SDS011;27555;50.808;4.402;2023-02-23T00:55:56;42.85;;;24.92;;
41875;SDS011;27555;50.808;4.402;2023-02-23T00:58:23;42.25;;;22.67;;
41875;SDS011;27555;50.808;4.402;2023-02-23T01:00:49;39.95;;;23.60;;
41875;SDS011;27555;50.808;4.402;2023-02-23T01:03:15;45.60;;;24.65;;
41875;SDS011;27555;50.808;4.402;2023-02-23T01:05:40;42.22;;;23.85;;
41875;SDS011;27555;50.808;4.402;2023-02-23T01:08:07;41.92;;;24.58;;
41875;SDS011;27555;50.808;4.402;2023-02-23T01:10:38;43.28;;;23.83;;
41875;SDS011;27555;50.808;4.402;2023-02-23T01:13:07;43.40;;;26.17;;
41875;SDS011;27555;50.808;4.402;2023-02-23T01:15:34;47.30;;;26.77;;
41875;SDS011;27555;50.808;4.402;2023-02-23T01:18:06;46.10;;;25.88;;
41875;SDS011;27555;50.808;4.402;2023-02-23T01:20:32;46.63;;;25.33;;
41875;SDS011;27555;50.808;4.402;2023-02-23T01:23:00;45.03;;;24.95;;
41875;SDS011;27555;50.808;4.402;2023-02-23T01:25:26;47.72;;;25.33;;
41875;SDS011;27555;50.808;4.402;2023-02-23T01:27:53;41.85;;;23.58;;
41875;SDS011;27555;50.808;4.402;2023-02-23T01:30:19;51.38;;;27.15;;
41875;SDS011;27555;50.808;4.402;2023-02-23T01:32:45;47.20;;;27.33;;
41875;SDS011;27555;50.808;4.402;2023-02-23T01:35:11;49.65;;;27.55;;
41875;SDS011;27555;50.808;4.402;2023-02-23T01:37:39;48.30;;;26.38;;
41875;SDS011;27555;50.808;4.402;2023-02-23T01:40:27;43.55;;;24.67;;
41875;SDS011;27555;50.808;4.402;2023-02-23T01:42:56;49.22;;;26.52;;
41875;SDS011;27555;50.808;4.402;2023-02-23T01:45:45;45.65;;;26.08;;
41875;SDS011;27555;50.808;4.402;2023-02-23T01:48:23;47.05;;;25.50;;
41875;SDS011;27555;50.808;4.402;2023-02-23T01:50:54;46.40;;;25.10;;
41875;SDS011;27555;50.808;4.402;2023-02-23T01:53:23;49.45;;;25.17;;
41875;SDS011;27555;50.808;4.402;2023-02-23T01:55:52;55.53;;;26.00;;
41875;SDS011;27555;50.808;4.402;2023-02-23T01:58:23;46.75;;;23.77;;
41875;SDS011;27555;50.808;4.402;2023-02-23T02:00:52;49.63;;;27.35;;
41875;SDS011;27555;50.808;4.402;2023-02-23T02:06:30;50.45;;;25.52;;
41875;SDS011;27555;50.808;4.402;2023-02-23T02:09:00;47.47;;;24.90;;
41875;SDS011;27555;50.808;4.402;2023-02-23T02:11:34;53.22;;;25.52;;
41875;SDS011;27555;50.808;4.402;2023-02-23T02:14:11;56.60;;;27.77;;
41875;SDS011;27555;50.808;4.402;2023-02-23T02:36:14;83.28;;;32.17;;
41875;SDS011;27555;50.808;4.402;2023-02-23T02:38:59;76.78;;;31.35;;
41875;SDS011;27555;50.808;4.402;2023-02-23T02:44:26;85.85;;;32.15;;
41875;SDS011;27555;50.808;4.402;2023-02-23T02:47:02;85.72;;;33.30;;
41875;SDS011;27555;50.808;4.402;2023-02-23T02:49:36;79.50;;;31.08;;
41875;SDS011;27555;50.808;4.402;2023-02-23T02:52:28;87.32;;;34.03;;
41875;SDS011;27555;50.808;4.402;2023-02-23T02:55:04;78.03;;;32.30;;
41875;SDS011;27555;50.808;4.402;2023-02-23T02:57:47;85.53;;;30.95;;
41875;SDS011;27555;50.808;4.402;2023-02-23T03:00:19;91.57;;;33.85;;
41875;SDS011;27555;50.808;4.402;2023-02-23T03:06:17;83.93;;;31.80;;
41875;SDS011;27555;50.808;4.402;2023-02-23T03:15:53;89.20;;;32.25;;
41875;SDS011;27555;50.808;4.402;2023-02-23T03:19:02;84.75;;;31.38;;
41875;SDS011;27555;50.808;4.402;2023-02-23T03:22:17;96.72;;;35.65;;
41875;SDS011;27555;50.808;4.402;2023-02-23T03:25:31;97.38;;;33.47;;
41875;SDS011;27555;50.808;4.402;2023-02-23T03:28:28;82.65;;;32.67;;
41875;SDS011;27555;50.808;4.402;2023-02-23T03:31:24;93.97;;;33.63;;
41875;SDS011;27555;50.808;4.402;2023-02-23T03:34:25;85.50;;;33.20;;
41875;SDS011;27555;50.808;4.402;2023-02-23T03:37:44;95.82;;;33.65;;
41875;SDS011;27555;50.808;4.402;2023-02-23T03:40:57;90.80;;;32.85;;
41875;SDS011;27555;50.808;4.402;2023-02-23T03:43:51;94.65;;;33.75;;
41875;SDS011;27555;50.808;4.402;2023-02-23T03:46:39;97.60;;;34.67;;
41875;SDS011;27555;50.808;4.402;2023-02-23T03:49:25;90.93;;;31.92;;
41875;SDS011;27555;50.808;4.402;2023-02-23T03:52:17;88.75;;;32.40;;
41875;SDS011;27555;50.808;4.402;2023-02-23T03:55:06;93.75;;;33.75;;
41875;SDS011;27555;50.808;4.402;2023-02-23T03:57:54;89.88;;;32.75;;
41875;SDS011;27555;50.808;4.402;2023-02-23T04:00:43;98.97;;;33.55;;
41875;SDS011;27555;50.808;4.402;2023-02-23T04:03:31;98.05;;;34.97;;
41875;SDS011;27555;50.808;4.402;2023-02-23T04:06:18;102.57;;;32.92;;
41875;SDS011;27555;50.808;4.402;2023-02-23T04:09:06;100.85;;;33.72;;
41875;SDS011;27555;50.808;4.402;2023-02-23T04:17:39;103.22;;;29.95;;
41875;SDS011;27555;50.808;4.402;2023-02-23T04:20:07;109.82;;;34.95;;
41875;SDS011;27555;50.808;4.402;2023-02-23T04:22:34;103.05;;;30.92;;
41875;SDS011;27555;50.808;4.402;2023-02-23T04:25:00;96.45;;;31.73;;
41875;SDS011;27555;50.808;4.402;2023-02-23T04:27:26;114.45;;;32.80;;
41875;SDS011;27555;50.808;4.402;2023-02-23T04:29:51;110.03;;;33.25;;
41875;SDS011;27555;50.808;4.402;2023-02-23T04:32:17;103.97;;;31.83;;
41875;SDS011;27555;50.808;4.402;2023-02-23T04:34:44;93.45;;;30.80;;
41875;SDS011;27555;50.808;4.402;2023-02-23T04:37:10;129.50;;;33.97;;
41875;SDS011;27555;50.808;4.402;2023-02-23T04:39:36;104.97;;;33.13;;
41875;SDS011;27555;50.808;4.402;2023-02-23T04:42:02;113.53;;;34.65;;
41875;SDS011;27555;50.808;4.402;2023-02-23T04:44:27;104.32;;;33.58;;
41875;SDS011;27555;50.808;4.402;2023-02-23T04:46:53;110.68;;;33.95;;
41875;SDS011;27555;50.808;4.402;2023-02-23T04:49:21;106.97;;;31.77;;
41875;SDS011;27555;50.808;4.402;2023-02-23T04:51:47;94.82;;;31.73;;
41875;SDS011;27555;50.808;4.402;2023-02-23T04:54:12;90.43;;;30.92;;
41875;SDS011;27555;50.808;4.402;2023-02-23T04:56:38;86.13;;;30.60;;
41875;SDS011;27555;50.808;4.402;2023-02-23T04:59:04;95.25;;;31.50;;
41875;SDS011;27555;50.808;4.402;2023-02-23T05:01:29;90.68;;;30.80;;
41875;SDS011;27555;50.808;4.402;2023-02-23T05:03:56;95.85;;;32.35;;
41875;SDS011;27555;50.808;4.402;2023-02-23T05:06:22;101.32;;;33.50;;
41875;SDS011;27555;50.808;4.402;2023-02-23T05:08:48;97.18;;;30.40;;
41875;SDS011;27555;50.808;4.402;2023-02-23T05:11:13;93.03;;;30.27;;
41875;SDS011;27555;50.808;4.402;2023-02-23T05:13:39;96.63;;;33.55;;
41875;SDS011;27555;50.808;4.402;2023-02-23T05:16:04;90.60;;;30.35;;
41875;SDS011;27555;50.808;4.402;2023-02-23T05:18:30;84.00;;;28.65;;
41875;SDS011;27555;50.808;4.402;2023-02-23T05:21:05;67.72;;;26.13;;
41875;SDS011;27555;50.808;4.402;2023-02-23T05:23:33;58.92;;;24.05;;
41875;SDS011;27555;50.808;4.402;2023-02-23T05:26:03;60.75;;;22.85;;
41875;SDS011;27555;50.808;4.402;2023-02-23T05:28:34;53.97;;;22.42;;
41875;SDS011;27555;50.808;4.402;2023-02-23T05:31:01;61.33;;;25.13;;
41875;SDS011;27555;50.808;4.402;2023-02-23T05:33:28;65.45;;;24.60;;
41875;SDS011;27555;50.808;4.402;2023-02-23T05:35:55;58.15;;;25.00;;
41875;SDS011;27555;50.808;4.402;2023-02-23T05:38:21;63.00;;;26.65;;
41875;SDS011;27555;50.808;4.402;2023-02-23T05:40:47;68.43;;;28.75;;
41875;SDS011;27555;50.808;4.402;2023-02-23T05:43:12;76.03;;;28.55;;
41875;SDS011;27555;50.808;4.402;2023-02-23T05:45:39;75.50;;;28.80;;
41875;SDS011;27555;50.808;4.402;2023-02-23T05:48:05;74.95;;;30.15;;
41875;SDS011;27555;50.808;4.402;2023-02-23T05:50:31;84.78;;;32.40;;
41875;SDS011;27555;50.808;4.402;2023-02-23T05:52:57;88.78;;;32.90;;
41875;SDS011;27555;50.808;4.402;2023-02-23T05:55:22;86.35;;;34.75;;
41875;SDS011;27555;50.808;4.402;2023-02-23T05:57:48;99.15;;;35.80;;
41875;SDS011;27555;50.808;4.402;2023-02-23T06:00:14;88.43;;;33.58;;
41875;SDS011;27555;50.808;4.402;2023-02-23T06:02:40;83.47;;;34.08;;
41875;SDS011;27555;50.808;4.402;2023-02-23T06:05:06;80.60;;;34.78;;
41875;SDS011;27555;50.808;4.402;2023-02-23T06:07:33;84.43;;;32.78;;
41875;SDS011;27555;50.808;4.402;2023-02-23T06:09:58;100.53;;;36.13;;
41875;SDS011;27555;50.808;4.402;2023-02-23T06:12:24;97.63;;;37.25;;
41875;SDS011;27555;50.808;4.402;2023-02-23T06:14:49;96.45;;;36.47;;
41875;SDS011;27555;50.808;4.402;2023-02-23T06:17:16;93.45;;;34.25;;
41875;SDS011;27555;50.808;4.402;2023-02-23T06:19:41;95.60;;;36.63;;
41875;SDS011;27555;50.808;4.402;2023-02-23T06:22:07;94.95;;;36.42;;
41875;SDS011;27555;50.808;4.402;2023-02-23T06:24:32;103.70;;;38.28;;
41875;SDS011;27555;50.808;4.402;2023-02-23T06:26:58;113.20;;;38.35;;
41875;SDS011;27555;50.808;4.402;2023-02-23T06:29:24;118.03;;;38.92;;
41875;SDS011;27555;50.808;4.402;2023-02-23T06:31:50;108.63;;;37.35;;
41875;SDS011;27555;50.808;4.402;2023-02-23T06:34:15;119.55;;;40.10;;
41875;SDS011;27555;50.808;4.402;2023-02-23T06:36:41;115.75;;;39.35;;
41875;SDS011;27555;50.808;4.402;2023-02-23T06:39:08;106.38;;;37.75;;
41875;SDS011;27555;50.808;4.402;2023-02-23T06:41:35;121.07;;;40.45;;
41875;SDS011;27555;50.808;4.402;2023-02-23T06:44:00;101.05;;;36.13;;
41875;SDS011;27555;50.808;4.402;2023-02-23T06:46:26;92.90;;;36.00;;
41875;SDS011;27555;50.808;4.402;2023-02-23T06:48:55;92.88;;;33.25;;
41875;SDS011;27555;50.808;4.402;2023-02-23T06:51:21;99.93;;;35.78;;
41875;SDS011;27555;50.808;4.402;2023-02-23T06:53:47;82.40;;;31.98;;
41875;SDS011;27555;50.808;4.402;2023-02-23T06:56:13;93.78;;;34.35;;
41875;SDS011;27555;50.808;4.402;2023-02-23T06:58:39;82.60;;;31.83;;
41875;SDS011;27555;50.808;4.402;2023-02-23T07:01:07;93.18;;;35.53;;
41875;SDS011;27555;50.808;4.402;2023-02-23T07:03:33;89.55;;;34.38;;
41875;SDS011;27555;50.808;4.402;2023-02-23T07:05:59;88.70;;;33.67;;
41875;SDS011;27555;50.808;4.402;2023-02-23T07:08:25;82.43;;;33.03;;
41875;SDS011;27555;50.808;4.402;2023-02-23T07:10:50;79.68;;;33.00;;
41875;SDS011;27555;50.808;4.402;2023-02-23T07:13:16;73.18;;;31.50;;
41875;SDS011;27555;50.808;4.402;2023-02-23T07:15:41;72.75;;;29.67;;
41875;SDS011;27555;50.808;4.402;2023-02-23T07:18:07;82.53;;;32.17;;
41875;SDS011;27555;50.808;4.402;2023-02-23T07:20:33;85.38;;;32.47;;
41875;SDS011;27555;50.808;4.402;2023-02-23T07:22:59;86.03;;;31.98;;
41875;SDS011;27555;50.808;4.402;2023-02-23T07:25:26;79.15;;;31.63;;
41875;SDS011;27555;50.808;4.402;2023-02-23T07:27:52;76.75;;;31.83;;
41875;SDS011;27555;50.808;4.402;2023-02-23T07:30:18;76.15;;;32.80;;
41875;SDS011;27555;50.808;4.402;2023-02-23T07:32:44;83.25;;;33.10;;
41875;SDS011;27555;50.808;4.402;2023-02-23T07:35:09;80.68;;;31.90;;
41875;SDS011;27555;50.808;4.402;2023-02-23T07:37:35;79.85;;;32.30;;
41875;SDS011;27555;50.808;4.402;2023-02-23T07:40:01;74.43;;;31.30;;
41875;SDS011;27555;50.808;4.402;2023-02-23T07:42:27;75.03;;;30.95;;
41875;SDS011;27555;50.808;4.402;2023-02-23T07:44:52;77.22;;;31.33;;
41875;SDS011;27555;50.808;4.402;2023-02-23T07:47:18;73.63;;;31.45;;
41875;SDS011;27555;50.808;4.402;2023-02-23T07:49:43;74.88;;;31.90;;
41875;SDS011;27555;50.808;4.402;2023-02-23T07:52:09;78.28;;;33.63;;
41875;SDS011;27555;50.808;4.402;2023-02-23T07:54:34;70.28;;;29.13;;
41875;SDS011;27555;50.808;4.402;2023-02-23T07:57:00;73.65;;;30.67;;
41875;SDS011;27555;50.808;4.402;2023-02-23T07:59:26;70.35;;;30.35;;
41875;SDS011;27555;50.808;4.402;2023-02-23T08:01:51;70.97;;;30.38;;
41875;SDS011;27555;50.808;4.402;2023-02-23T08:04:17;65.45;;;29.13;;
41875;SDS011;27555;50.808;4.402;2023-02-23T08:06:42;82.68;;;33.95;;
41875;SDS011;27555;50.808;4.402;2023-02-23T08:09:09;71.22;;;30.17;;
41875;SDS011;27555;50.808;4.402;2023-02-23T08:11:36;67.75;;;29.95;;
41875;SDS011;27555;50.808;4.402;2023-02-23T08:14:01;64.13;;;28.15;;
41875;SDS011;27555;50.808;4.402;2023-02-23T08:16:30;67.75;;;29.13;;
41875;SDS011;27555;50.808;4.402;2023-02-23T08:18:57;71.68;;;28.25;;
41875;SDS011;27555;50.808;4.402;2023-02-23T08:21:24;69.20;;;29.63;;
41875;SDS011;27555;50.808;4.402;2023-02-23T08:23:50;78.47;;;29.67;;
41875;SDS011;27555;50.808;4.402;2023-02-23T08:26:15;66.30;;;29.02;;
41875;SDS011;27555;50.808;4.402;2023-02-23T08:28:41;68.20;;;30.00;;
41875;SDS011;27555;50.808;4.402;2023-02-23T08:31:10;68.90;;;31.35;;
41875;SDS011;27555;50.808;4.402;2023-02-23T08:33:36;69.97;;;31.55;;
41875;SDS011;27555;50.808;4.402;2023-02-23T08:36:03;67.03;;;31.73;;
41875;SDS011;27555;50.808;4.402;2023-02-23T08:38:29;82.57;;;33.03;;
41875;SDS011;27555;50.808;4.402;2023-02-23T08:40:58;80.72;;;34.83;;
41875;SDS011;27555;50.808;4.402;2023-02-23T08:43:24;84.97;;;32.90;;
41875;SDS011;27555;50.808;4.402;2023-02-23T08:45:49;71.00;;;30.67;;
41875;SDS011;27555;50.808;4.402;2023-02-23T08:48:15;81.28;;;33.20;;
41875;SDS011;27555;50.808;4.402;2023-02-23T08:50:40;70.45;;;32.30;;
41875;SDS011;27555;50.808;4.402;2023-02-23T08:53:06;74.70;;;32.40;;
41875;SDS011;27555;50.808;4.402;2023-02-23T08:55:33;73.90;;;31.73;;
41875;SDS011;27555;50.808;4.402;2023-02-23T08:57:59;69.88;;;31.17;;
41875;SDS011;27555;50.808;4.402;2023-02-23T09:00:25;76.25;;;34.22;;
41875;SDS011;27555;50.808;4.402;2023-02-23T09:02:51;72.00;;;32.35;;
41875;SDS011;27555;50.808;4.402;2023-02-23T09:05:16;71.97;;;32.25;;
41875;SDS011;27555;50.808;4.402;2023-02-23T09:07:43;70.07;;;31.55;;
41875;SDS011;27555;50.808;4.402;2023-02-23T09:10:11;74.93;;;34.72;;
41875;SDS011;27555;50.808;4.402;2023-02-23T09:12:38;77.00;;;35.85;;
41875;SDS011;27555;50.808;4.402;2023-02-23T09:15:03;75.72;;;32.95;;
41875;SDS011;27555;50.808;4.402;2023-02-23T09:17:29;70.82;;;32.58;;
41875;SDS011;27555;50.808;4.402;2023-02-23T09:19:55;79.88;;;34.08;;
41875;SDS011;27555;50.808;4.402;2023-02-23T09:22:20;75.82;;;35.03;;
41875;SDS011;27555;50.808;4.402;2023-02-23T09:24:46;67.00;;;33.00;;
41875;SDS011;27555;50.808;4.402;2023-02-23T09:27:11;73.60;;;32.60;;
41875;SDS011;27555;50.808;4.402;2023-02-23T09:29:38;74.28;;;34.53;;
41875;SDS011;27555;50.808;4.402;2023-02-23T09:32:08;72.40;;;33.65;;
41875;SDS011;27555;50.808;4.402;2023-02-23T09:34:34;73.95;;;32.60;;
41875;SDS011;27555;50.808;4.402;2023-02-23T09:37:03;75.20;;;34.05;;
41875;SDS011;27555;50.808;4.402;2023-02-23T09:39:29;74.00;;;34.65;;
41875;SDS011;27555;50.808;4.402;2023-02-23T09:44:32;80.30;;;37.33;;
41875;SDS011;27555;50.808;4.402;2023-02-23T09:50:09;94.30;;;41.08;;
41875;SDS011;27555;50.808;4.402;2023-02-23T09:52:39;73.70;;;33.10;;
41875;SDS011;27555;50.808;4.402;2023-02-23T09:55:09;80.28;;;34.75;;
41875;SDS011;27555;50.808;4.402;2023-02-23T09:57:38;77.53;;;35.67;;
41875;SDS011;27555;50.808;4.402;2023-02-23T10:00:15;77.15;;;34.10;;
41875;SDS011;27555;50.808;4.402;2023-02-23T10:03:02;68.85;;;31.58;;
41875;SDS011;27555;50.808;4.402;2023-02-23T10:05:37;71.00;;;32.03;;
41875;SDS011;27555;50.808;4.402;2023-02-23T10:08:12;71.82;;;34.97;;
41875;SDS011;27555;50.808;4.402;2023-02-23T10:16:09;72.93;;;34.08;;
41875;SDS011;27555;50.808;4.402;2023-02-23T10:18:55;62.90;;;30.83;;
41875;SDS011;27555;50.808;4.402;2023-02-23T10:24:15;68.57;;;32.40;;
41875;SDS011;27555;50.808;4.402;2023-02-23T10:26:48;68.93;;;33.10;;
41875;SDS011;27555;50.808;4.402;2023-02-23T10:32:04;73.43;;;36.50;;
41875;SDS011;27555;50.808;4.402;2023-02-23T10:34:52;68.07;;;34.67;;
41875;SDS011;27555;50.808;4.402;2023-02-23T10:37:20;74.00;;;35.30;;
41875;SDS011;27555;50.808;4.402;2023-02-23T10:39:47;66.00;;;33.55;;
41875;SDS011;27555;50.808;4.402;2023-02-23T10:42:22;66.93;;;33.35;;
41875;SDS011;27555;50.808;4.402;2023-02-23T10:44:52;67.88;;;33.65;;
41875;SDS011;27555;50.808;4.402;2023-02-23T10:47:22;66.68;;;34.35;;
41875;SDS011;27555;50.808;4.402;2023-02-23T10:49:52;63.47;;;32.40;;
41875;SDS011;27555;50.808;4.402;2023-02-23T10:52:20;61.47;;;33.40;;
41875;SDS011;27555;50.808;4.402;2023-02-23T10:55:04;62.35;;;30.92;;
41875;SDS011;27555;50.808;4.402;2023-02-23T10:57:32;60.17;;;30.45;;
41875;SDS011;27555;50.808;4.402;2023-02-23T11:02:39;62.15;;;30.70;;
41875;SDS011;27555;50.808;4.402;2023-02-23T11:05:06;59.08;;;29.13;;
41875;SDS011;27555;50.808;4.402;2023-02-23T11:07:51;58.00;;;28.88;;
41875;SDS011;27555;50.808;4.402;2023-02-23T11:10:54;68.38;;;33.97;;
41875;SDS011;27555;50.808;4.402;2023-02-23T11:13:32;62.80;;;30.77;;
41875;SDS011;27555;50.808;4.402;2023-02-23T11:16:09;48.83;;;25.65;;
41875;SDS011;27555;50.808;4.402;2023-02-23T11:18:38;48.28;;;25.33;;
41875;SDS011;27555;50.808;4.402;2023-02-23T11:21:12;54.75;;;27.80;;
41875;SDS011;27555;50.808;4.402;2023-02-23T11:23:45;56.75;;;26.10;;
41875;SDS011;27555;50.808;4.402;2023-02-23T11:26:24;59.50;;;30.20;;
41875;SDS011;27555;50.808;4.402;2023-02-23T11:28:58;49.63;;;25.67;;
41875;SDS011;27555;50.808;4.402;2023-02-23T11:31:31;51.80;;;27.60;;
41875;SDS011;27555;50.808;4.402;2023-02-23T11:33:59;49.72;;;27.05;;
41875;SDS011;27555;50.808;4.402;2023-02-23T11:36:28;58.45;;;29.33;;
41875;SDS011;27555;50.808;4.402;2023-02-23T11:39:04;56.35;;;29.25;;
41875;SDS011;27555;50.808;4.402;2023-02-23T11:41:30;62.78;;;29.92;;
41875;SDS011;27555;50.808;4.402;2023-02-23T11:43:59;55.83;;;27.38;;
41875;SDS011;27555;50.808;4.402;2023-02-23T11:46:26;58.72;;;29.58;;
41875;SDS011;27555;50.808;4.402;2023-02-23T11:51:34;68.57;;;30.48;;
41875;SDS011;27555;50.808;4.402;2023-02-23T11:54:02;65.13;;;31.20;;
41875;SDS011;27555;50.808;4.402;2023-02-23T11:56:29;60.08;;;30.63;;
41875;SDS011;27555;50.808;4.402;2023-02-23T11:58:58;64.22;;;30.05;;
41875;SDS011;27555;50.808;4.402;2023-02-23T12:01:52;56.20;;;27.95;;
41875;SDS011;27555;50.808;4.402;2023-02-23T12:10:12;44.22;;;22.05;;
41875;SDS011;27555;50.808;4.402;2023-02-23T12:12:44;42.63;;;21.00;;
41875;SDS011;27555;50.808;4.402;2023-02-23T12:15:14;37.72;;;19.30;;
41875;SDS011;27555;50.808;4.402;2023-02-23T12:17:54;37.88;;;20.95;;
41875;SDS011;27555;50.808;4.402;2023-02-23T12:20:26;41.55;;;21.08;;
41875;SDS011;27555;50.808;4.402;2023-02-23T12:23:02;42.35;;;22.65;;
41875;SDS011;27555;50.808;4.402;2023-02-23T12:28:19;49.50;;;26.95;;
41875;SDS011;27555;50.808;4.402;2023-02-23T12:35:58;54.53;;;30.05;;
41875;SDS011;27555;50.808;4.402;2023-02-23T12:38:39;58.28;;;29.15;;
41875;SDS011;27555;50.808;4.402;2023-02-23T12:41:14;61.25;;;32.35;;
41875;SDS011;27555;50.808;4.402;2023-02-23T12:44:00;63.95;;;33.28;;
41875;SDS011;27555;50.808;4.402;2023-02-23T12:46:38;68.35;;;31.45;;
41875;SDS011;27555;50.808;4.402;2023-02-23T12:52:06;69.50;;;36.83;;
41875;SDS011;27555;50.808;4.402;2023-02-23T12:54:42;78.00;;;33.63;;
41875;SDS011;27555;50.808;4.402;2023-02-23T13:05:24;61.33;;;31.55;;
41875;SDS011;27555;50.808;4.402;2023-02-23T13:16:10;65.75;;;32.83;;
41875;SDS011;27555;50.808;4.402;2023-02-23T13:24:04;54.08;;;31.40;;
41875;SDS011;27555;50.808;4.402;2023-02-23T13:26:49;54.78;;;30.55;;
41875;SDS011;27555;50.808;4.402;2023-02-23T13:32:22;53.53;;;30.75;;
41875;SDS011;27555;50.808;4.402;2023-02-23T13:34:55;58.10;;;30.13;;
41875;SDS011;27555;50.808;4.402;2023-02-23T13:37:30;56.10;;;31.90;;
41875;SDS011;27555;50.808;4.402;2023-02-23T13:40:20;58.70;;;30.60;;
41875;SDS011;27555;50.808;4.402;2023-02-23T13:51:06;61.28;;;31.42;;
41875;SDS011;27555;50.808;4.402;2023-02-23T13:53:39;58.33;;;29.45;;
41875;SDS011;27555;50.808;4.402;2023-02-23T13:56:17;55.92;;;28.48;;
41875;SDS011;27555;50.808;4.402;2023-02-23T14:01:28;57.38;;;28.95;;
41875;SDS011;27555;50.808;4.402;2023-02-23T14:03:57;47.00;;;26.92;;
41875;SDS011;27555;50.808;4.402;2023-02-23T14:06:27;52.28;;;28.60;;
41875;SDS011;27555;50.808;4.402;2023-02-23T14:08:56;49.70;;;25.73;;
41875;SDS011;27555;50.808;4.402;2023-02-23T14:11:40;46.47;;;24.58;;
41875;SDS011;27555;50.808;4.402;2023-02-23T14:15:01;53.22;;;25.33;;
41875;SDS011;27555;50.808;4.402;2023-02-23T14:28:43;43.53;;;22.35;;
41875;SDS011;27555;50.808;4.402;2023-02-23T14:41:26;33.20;;;18.77;;
41875;SDS011;27555;50.808;4.402;2023-02-23T14:43:54;36.33;;;18.20;;
41875;SDS011;27555;50.808;4.402;2023-02-23T14:46:52;34.53;;;17.75;;
41875;SDS011;27555;50.808;4.402;2023-02-23T14:49:25;33.15;;;17.20;;
41875;SDS011;27555;50.808;4.402;2023-02-23T14:51:52;33.47;;;17.15;;
41875;SDS011;27555;50.808;4.402;2023-02-23T14:54:24;30.88;;;16.88;;
41875;SDS011;27555;50.808;4.402;2023-02-23T14:56:55;37.63;;;21.05;;
41875;SDS011;27555;50.808;4.402;2023-02-23T14:59:24;34.30;;;17.77;;
41875;SDS011;27555;50.808;4.402;2023-02-23T15:01:52;33.25;;;17.88;;
41875;SDS011;27555;50.808;4.402;2023-02-23T15:04:20;35.22;;;17.33;;
41875;SDS011;27555;50.808;4.402;2023-02-23T15:06:54;40.22;;;21.30;;
41875;SDS011;27555;50.808;4.402;2023-02-23T15:09:32;41.65;;;21.55;;
41875;SDS011;27555;50.808;4.402;2023-02-23T15:12:26;37.47;;;17.55;;
41875;SDS011;27555;50.808;4.402;2023-02-23T15:14:56;35.90;;;16.73;;
41875;SDS011;27555;50.808;4.402;2023-02-23T15:17:25;35.05;;;16.98;;
41875;SDS011;27555;50.808;4.402;2023-02-23T15:20:05;31.85;;;15.63;;
41875;SDS011;27555;50.808;4.402;2023-02-23T15:22:36;27.33;;;14.23;;
41875;SDS011;27555;50.808;4.402;2023-02-23T15:25:12;28.05;;;14.50;;
41875;SDS011;27555;50.808;4.402;2023-02-23T15:27:41;27.75;;;13.95;;
41875;SDS011;27555;50.808;4.402;2023-02-23T15:32:45;29.13;;;15.55;;
41875;SDS011;27555;50.808;4.402;2023-02-23T15:35:12;26.95;;;15.45;;
41875;SDS011;27555;50.808;4.402;2023-02-23T15:40:14;28.92;;;15.23;;
41875;SDS011;27555;50.808;4.402;2023-02-23T15:42:43;29.08;;;14.75;;
41875;SDS011;27555;50.808;4.402;2023-02-23T15:45:23;33.00;;;16.47;;
41875;SDS011;27555;50.808;4.402;2023-02-23T15:47:53;26.60;;;14.82;;
41875;SDS011;27555;50.808;4.402;2023-02-23T15:50:22;30.42;;;16.05;;
41875;SDS011;27555;50.808;4.402;2023-02-23T15:52:56;30.63;;;15.60;;
41875;SDS011;27555;50.808;4.402;2023-02-23T15:55:25;29.88;;;15.73;;
41875;SDS011;27555;50.808;4.402;2023-02-23T15:57:54;28.98;;;13.25;;
41875;SDS011;27555;50.808;4.402;2023-02-23T16:00:33;20.35;;;12.07;;
41875;SDS011;27555;50.808;4.402;2023-02-23T16:03:02;23.77;;;12.70;;
41875;SDS011;27555;50.808;4.402;2023-02-23T16:05:30;23.90;;;13.00;;
41875;SDS011;27555;50.808;4.402;2023-02-23T16:08:17;20.85;;;10.80;;
41875;SDS011;27555;50.808;4.402;2023-02-23T16:10:47;22.25;;;11.73;;
41875;SDS011;27555;50.808;4.402;2023-02-23T16:13:17;21.13;;;11.00;;
41875;SDS011;27555;50.808;4.402;2023-02-23T16:15:45;22.00;;;9.60;;
41875;SDS011;27555;50.808;4.402;2023-02-23T16:18:13;26.83;;;12.15;;
41875;SDS011;27555;50.808;4.402;2023-02-23T16:20:50;23.85;;;11.57;;
41875;SDS011;27555;50.808;4.402;2023-02-23T16:26:10;26.67;;;12.23;;
41875;SDS011;27555;50.808;4.402;2023-02-23T16:28:44;26.80;;;13.30;;
41875;SDS011;27555;50.808;4.402;2023-02-23T16:31:10;22.92;;;11.25;;
41875;SDS011;27555;50.808;4.402;2023-02-23T16:36:12;24.75;;;14.00;;
41875;SDS011;27555;50.808;4.402;2023-02-23T16:41:22;26.45;;;14.30;;
41875;SDS011;27555;50.808;4.402;2023-02-23T16:43:50;31.75;;;15.00;;
41875;SDS011;27555;50.808;4.402;2023-02-23T16:46:18;23.20;;;13.75;;
41875;SDS011;27555;50.808;4.402;2023-02-23T16:48:46;26.90;;;13.20;;
41875;SDS011;27555;50.808;4.402;2023-02-23T16:51:12;23.25;;;12.82;;
41875;SDS011;27555;50.808;4.402;2023-02-23T16:53:39;24.55;;;13.38;;
41875;SDS011;27555;50.808;4.402;2023-02-23T16:56:05;23.80;;;11.95;;
41875;SDS011;27555;50.808;4.402;2023-02-23T16:58:37;24.50;;;13.40;;
41875;SDS011;27555;50.808;4.402;2023-02-23T17:01:04;20.95;;;13.10;;
41875;SDS011;27555;50.808;4.402;2023-02-23T17:03:30;21.05;;;12.27;;
41875;SDS011;27555;50.808;4.402;2023-02-23T17:05:57;20.88;;;11.98;;
41875;SDS011;27555;50.808;4.402;2023-02-23T17:08:23;22.23;;;12.57;;
41875;SDS011;27555;50.808;4.402;2023-02-23T17:10:50;22.08;;;12.00;;
41875;SDS011;27555;50.808;4.402;2023-02-23T17:13:18;23.15;;;13.38;;
41875;SDS011;27555;50.808;4.402;2023-02-23T17:15:46;21.80;;;11.68;;